sensor_id;sensor_type;location;lat;lon;timestamp;P1;durP1;ratioP1;P2;durP2;ratioP2
60610;SDS011;46439;51.164;13.572;2023-04-16T14:50:08;5.10;;;3.60;;
60610;SDS011;46439;51.164;13.572;2023-04-16T14:52:37;5.20;;;4.10;;
60610;SDS011;46439;51.164;13.572;2023-04-16T14:55:06;5.60;;;3.80;;
60610;SDS011;46439;51.164;13.572;2023-04-16T14:57:35;6.80;;;3.80;;
60610;SDS011;46439;51.164;13.572;2023-04-16T15:00:05;3.40;;;3.10;;
60610;SDS011;46439;51.164;13.572;2023-04-16T15:02:37;5.30;;;3.30;;
60610;SDS011;46439;51.164;13.572;2023-04-16T15:05:06;4.00;;;3.00;;
60610;SDS011;46439;51.164;13.572;2023-04-16T15:07:36;4.40;;;3.20;;
60610;SDS011;46439;51.164;13.572;2023-04-16T15:10:05;4.10;;;3.30;;
60610;SDS011;46439;51.164;13.572;2023-04-16T15:12:35;3.90;;;3.10;;
60610;SDS011;46439;51.164;13.572;2023-04-16T15:15:05;3.80;;;3.00;;
60610;SDS011;46439;51.164;13.572;2023-04-16T15:17:35;4.30;;;3.40;;
60610;SDS011;46439;51.164;13.572;2023-04-16T15:20:04;4.60;;;3.50;;
60610;SDS011;46439;51.164;13.572;2023-04-16T15:22:35;4.80;;;3.70;;
60610;SDS011;46439;51.164;13.572;2023-04-16T15:25:04;5.50;;;4.20;;
60610;SDS011;46439;51.164;13.572;2023-04-16T15:27:34;6.30;;;4.10;;
60610;SDS011;46439;51.164;13.572;2023-04-16T15:30:03;5.20;;;3.80;;
60610;SDS011;46439;51.164;13.572;2023-04-16T15:32:34;5.60;;;4.20;;
60610;SDS011;46439;51.164;13.572;2023-04-16T15:35:03;5.50;;;4.20;;
60610;SDS011;46439;51.164;13.572;2023-04-16T15:37:39;5.70;;;4.40;;
60610;SDS011;46439;51.164;13.572;2023-04-16T15:40:23;5.60;;;4.40;;
60610;SDS011;46439;51.164;13.572;2023-04-16T15:42:52;6.10;;;4.30;;
60610;SDS011;46439;51.164;13.572;2023-04-16T15:45:22;5.40;;;4.30;;
60610;SDS011;46439;51.164;13.572;2023-04-16T15:47:52;3.90;;;3.40;;
60610;SDS011;46439;51.164;13.572;2023-04-16T15:50:21;5.60;;;4.50;;
60610;SDS011;46439;51.164;13.572;2023-04-16T15:52:51;7.70;;;4.60;;
60610;SDS011;46439;51.164;13.572;2023-04-16T15:55:21;6.50;;;4.90;;
60610;SDS011;46439;51.164;13.572;2023-04-16T15:57:52;7.20;;;4.80;;
60610;SDS011;46439;51.164;13.572;2023-04-16T16:00:20;6.30;;;4.40;;
60610;SDS011;46439;51.164;13.572;2023-04-16T16:02:49;5.10;;;3.70;;
60610;SDS011;46439;51.164;13.572;2023-04-16T16:05:20;4.40;;;3.40;;
60610;SDS011;46439;51.164;13.572;2023-04-16T16:08:00;6.50;;;4.00;;
60610;SDS011;46439;51.164;13.572;2023-04-16T16:10:31;5.30;;;3.20;;
60610;SDS011;46439;51.164;13.572;2023-04-16T16:13:04;3.40;;;3.00;;
60610;SDS011;46439;51.164;13.572;2023-04-16T16:15:39;4.40;;;3.50;;
60610;SDS011;46439;51.164;13.572;2023-04-16T16:18:07;4.60;;;3.50;;
60610;SDS011;46439;51.164;13.572;2023-04-16T16:20:36;5.10;;;4.10;;
60610;SDS011;46439;51.164;13.572;2023-04-16T16:23:06;5.20;;;4.10;;
60610;SDS011;46439;51.164;13.572;2023-04-16T16:25:34;8.00;;;5.30;;
60610;SDS011;46439;51.164;13.572;2023-04-16T16:28:03;6.20;;;5.20;;
60610;SDS011;46439;51.164;13.572;2023-04-16T16:30:32;7.20;;;5.70;;
60610;SDS011;46439;51.164;13.572;2023-04-16T16:33:01;8.00;;;5.40;;
60610;SDS011;46439;51.164;13.572;2023-04-16T16:35:29;6.30;;;4.50;;
60610;SDS011;46439;51.164;13.572;2023-04-16T16:37:58;9.50;;;6.20;;
60610;SDS011;46439;51.164;13.572;2023-04-16T16:40:28;10.90;;;6.90;;
60610;SDS011;46439;51.164;13.572;2023-04-16T16:42:56;9.70;;;7.00;;
60610;SDS011;46439;51.164;13.572;2023-04-16T16:45:25;9.70;;;7.40;;
60610;SDS011;46439;51.164;13.572;2023-04-16T16:47:54;12.30;;;8.40;;
60610;SDS011;46439;51.164;13.572;2023-04-16T16:50:24;12.10;;;8.50;;
60610;SDS011;46439;51.164;13.572;2023-04-16T16:52:53;14.60;;;9.60;;
60610;SDS011;46439;51.164;13.572;2023-04-16T16:55:23;14.70;;;10.00;;
60610;SDS011;46439;51.164;13.572;2023-04-16T16:58:00;14.70;;;10.50;;
60610;SDS011;46439;51.164;13.572;2023-04-16T17:00:34;13.40;;;10.20;;
60610;SDS011;46439;51.164;13.572;2023-04-16T17:03:03;15.40;;;10.80;;
60610;SDS011;46439;51.164;13.572;2023-04-16T17:05:31;15.80;;;10.70;;
60610;SDS011;46439;51.164;13.572;2023-04-16T17:08:00;17.90;;;10.70;;
60610;SDS011;46439;51.164;13.572;2023-04-16T17:10:29;17.30;;;12.00;;
60610;SDS011;46439;51.164;13.572;2023-04-16T17:12:58;18.30;;;12.00;;
60610;SDS011;46439;51.164;13.572;2023-04-16T17:15:27;17.20;;;12.70;;
60610;SDS011;46439;51.164;13.572;2023-04-16T17:17:56;17.40;;;12.00;;
60610;SDS011;46439;51.164;13.572;2023-04-16T17:20:25;18.40;;;12.20;;
60610;SDS011;46439;51.164;13.572;2023-04-16T17:22:54;17.10;;;12.50;;
60610;SDS011;46439;51.164;13.572;2023-04-16T17:25:26;17.50;;;12.80;;
60610;SDS011;46439;51.164;13.572;2023-04-16T17:27:55;20.60;;;14.50;;
60610;SDS011;46439;51.164;13.572;2023-04-16T17:30:23;21.90;;;16.50;;
60610;SDS011;46439;51.164;13.572;2023-04-16T17:32:53;19.90;;;15.50;;
60610;SDS011;46439;51.164;13.572;2023-04-16T17:35:22;19.70;;;14.80;;
60610;SDS011;46439;51.164;13.572;2023-04-16T17:37:53;17.20;;;12.60;;
60610;SDS011;46439;51.164;13.572;2023-04-16T17:40:22;17.40;;;12.20;;
60610;SDS011;46439;51.164;13.572;2023-04-16T17:42:51;17.90;;;11.20;;
60610;SDS011;46439;51.164;13.572;2023-04-16T17:45:19;15.20;;;11.60;;
60610;SDS011;46439;51.164;13.572;2023-04-16T17:47:47;17.30;;;11.80;;
60610;SDS011;46439;51.164;13.572;2023-04-16T17:50:16;12.40;;;8.90;;
60610;SDS011;46439;51.164;13.572;2023-04-16T17:52:45;12.20;;;8.30;;
60610;SDS011;46439;51.164;13.572;2023-04-16T17:55:13;9.10;;;6.80;;
60610;SDS011;46439;51.164;13.572;2023-04-16T17:57:42;8.80;;;6.00;;
60610;SDS011;46439;51.164;13.572;2023-04-16T18:00:11;7.70;;;5.80;;
60610;SDS011;46439;51.164;13.572;2023-04-16T18:02:41;7.90;;;6.10;;
60610;SDS011;46439;51.164;13.572;2023-04-16T18:05:10;9.60;;;7.10;;
60610;SDS011;46439;51.164;13.572;2023-04-16T18:07:39;8.60;;;6.20;;
60610;SDS011;46439;51.164;13.572;2023-04-16T18:10:09;9.40;;;6.90;;
60610;SDS011;46439;51.164;13.572;2023-04-16T18:12:38;9.50;;;6.90;;
60610;SDS011;46439;51.164;13.572;2023-04-16T18:15:07;11.10;;;7.30;;
60610;SDS011;46439;51.164;13.572;2023-04-16T18:17:37;9.80;;;7.00;;
60610;SDS011;46439;51.164;13.572;2023-04-16T18:20:07;9.80;;;6.80;;
60610;SDS011;46439;51.164;13.572;2023-04-16T18:25:05;11.30;;;7.80;;
60610;SDS011;46439;51.164;13.572;2023-04-16T18:27:34;10.30;;;7.30;;
60610;SDS011;46439;51.164;13.572;2023-04-16T18:30:03;10.10;;;7.60;;
60610;SDS011;46439;51.164;13.572;2023-04-16T18:32:33;9.90;;;7.50;;
60610;SDS011;46439;51.164;13.572;2023-04-16T18:35:03;10.60;;;7.60;;
60610;SDS011;46439;51.164;13.572;2023-04-16T18:37:33;10.70;;;7.70;;
60610;SDS011;46439;51.164;13.572;2023-04-16T18:40:01;11.80;;;7.90;;
60610;SDS011;46439;51.164;13.572;2023-04-16T18:42:32;10.60;;;7.90;;
60610;SDS011;46439;51.164;13.572;2023-04-16T18:45:02;11.30;;;8.10;;
60610;SDS011;46439;51.164;13.572;2023-04-16T18:47:37;11.30;;;8.50;;
60610;SDS011;46439;51.164;13.572;2023-04-16T18:50:07;14.70;;;10.30;;
60610;SDS011;46439;51.164;13.572;2023-04-16T18:52:36;13.30;;;9.70;;
60610;SDS011;46439;51.164;13.572;2023-04-16T18:55:05;8.80;;;6.80;;
60610;SDS011;46439;51.164;13.572;2023-04-16T18:57:34;8.60;;;6.40;;
60610;SDS011;46439;51.164;13.572;2023-04-16T19:00:03;8.90;;;6.60;;
60610;SDS011;46439;51.164;13.572;2023-04-16T19:02:39;10.30;;;7.00;;
60610;SDS011;46439;51.164;13.572;2023-04-16T19:05:08;8.80;;;6.30;;
60610;SDS011;46439;51.164;13.572;2023-04-16T19:07:37;8.70;;;6.20;;
60610;SDS011;46439;51.164;13.572;2023-04-16T19:10:06;7.00;;;5.70;;
60610;SDS011;46439;51.164;13.572;2023-04-16T19:12:36;6.20;;;4.90;;
60610;SDS011;46439;51.164;13.572;2023-04-16T19:15:05;6.40;;;4.60;;
60610;SDS011;46439;51.164;13.572;2023-04-16T19:17:34;5.50;;;4.40;;
60610;SDS011;46439;51.164;13.572;2023-04-16T19:20:03;5.20;;;3.60;;
60610;SDS011;46439;51.164;13.572;2023-04-16T19:22:36;7.10;;;4.40;;
60610;SDS011;46439;51.164;13.572;2023-04-16T19:25:06;5.80;;;4.30;;
60610;SDS011;46439;51.164;13.572;2023-04-16T19:27:35;7.80;;;4.00;;
60610;SDS011;46439;51.164;13.572;2023-04-16T19:30:04;5.50;;;4.20;;
60610;SDS011;46439;51.164;13.572;2023-04-16T19:32:34;7.20;;;4.40;;
60610;SDS011;46439;51.164;13.572;2023-04-16T19:35:03;5.30;;;3.70;;
60610;SDS011;46439;51.164;13.572;2023-04-16T19:37:32;5.60;;;4.10;;
60610;SDS011;46439;51.164;13.572;2023-04-16T19:40:01;5.50;;;4.10;;
60610;SDS011;46439;51.164;13.572;2023-04-16T19:42:31;5.40;;;4.20;;
60610;SDS011;46439;51.164;13.572;2023-04-16T19:45:00;6.30;;;4.40;;
60610;SDS011;46439;51.164;13.572;2023-04-16T19:47:28;5.40;;;3.80;;
60610;SDS011;46439;51.164;13.572;2023-04-16T19:49:57;5.60;;;4.30;;
60610;SDS011;46439;51.164;13.572;2023-04-16T19:52:26;5.70;;;4.40;;
60610;SDS011;46439;51.164;13.572;2023-04-16T19:54:54;4.90;;;4.20;;
60610;SDS011;46439;51.164;13.572;2023-04-16T19:57:23;6.30;;;4.70;;
60610;SDS011;46439;51.164;13.572;2023-04-16T19:59:51;6.00;;;4.40;;
60610;SDS011;46439;51.164;13.572;2023-04-16T20:02:20;7.10;;;4.90;;
60610;SDS011;46439;51.164;13.572;2023-04-16T20:04:48;6.60;;;5.00;;
60610;SDS011;46439;51.164;13.572;2023-04-16T20:07:18;6.50;;;4.90;;
60610;SDS011;46439;51.164;13.572;2023-04-16T20:09:47;5.00;;;4.20;;
60610;SDS011;46439;51.164;13.572;2023-04-16T20:12:15;6.90;;;5.40;;
60610;SDS011;46439;51.164;13.572;2023-04-16T20:14:44;7.60;;;5.00;;
60610;SDS011;46439;51.164;13.572;2023-04-16T20:17:13;7.30;;;5.40;;
60610;SDS011;46439;51.164;13.572;2023-04-16T20:19:43;9.10;;;5.70;;
60610;SDS011;46439;51.164;13.572;2023-04-16T20:22:15;6.90;;;5.20;;
60610;SDS011;46439;51.164;13.572;2023-04-16T20:24:44;8.30;;;6.30;;
60610;SDS011;46439;51.164;13.572;2023-04-16T20:27:13;8.30;;;6.10;;
60610;SDS011;46439;51.164;13.572;2023-04-16T20:32:11;8.80;;;6.20;;
60610;SDS011;46439;51.164;13.572;2023-04-16T20:34:40;7.10;;;6.10;;
60610;SDS011;46439;51.164;13.572;2023-04-16T20:37:08;6.90;;;5.30;;
60610;SDS011;46439;51.164;13.572;2023-04-16T20:39:37;7.60;;;6.10;;
60610;SDS011;46439;51.164;13.572;2023-04-16T20:42:06;8.00;;;6.20;;
60610;SDS011;46439;51.164;13.572;2023-04-16T20:44:37;8.00;;;6.50;;
60610;SDS011;46439;51.164;13.572;2023-04-16T20:47:06;8.00;;;6.30;;
60610;SDS011;46439;51.164;13.572;2023-04-16T20:49:36;8.10;;;6.10;;
60610;SDS011;46439;51.164;13.572;2023-04-16T20:52:05;7.60;;;5.70;;
60610;SDS011;46439;51.164;13.572;2023-04-16T20:54:34;7.70;;;5.90;;
60610;SDS011;46439;51.164;13.572;2023-04-16T20:57:02;8.40;;;6.60;;
60610;SDS011;46439;51.164;13.572;2023-04-16T20:59:31;7.90;;;6.00;;
60610;SDS011;46439;51.164;13.572;2023-04-16T21:01:59;7.70;;;6.10;;
60610;SDS011;46439;51.164;13.572;2023-04-16T21:04:28;8.30;;;6.60;;
60610;SDS011;46439;51.164;13.572;2023-04-16T21:06:56;8.90;;;6.60;;
60610;SDS011;46439;51.164;13.572;2023-04-16T21:11:56;9.40;;;6.70;;
60610;SDS011;46439;51.164;13.572;2023-04-16T21:14:25;9.00;;;6.80;;
60610;SDS011;46439;51.164;13.572;2023-04-16T21:16:53;8.10;;;6.20;;
60610;SDS011;46439;51.164;13.572;2023-04-16T21:19:22;10.70;;;7.60;;
60610;SDS011;46439;51.164;13.572;2023-04-16T21:21:51;9.20;;;7.30;;
60610;SDS011;46439;51.164;13.572;2023-04-16T21:24:19;9.80;;;7.70;;
60610;SDS011;46439;51.164;13.572;2023-04-16T21:26:47;10.20;;;7.80;;
60610;SDS011;46439;51.164;13.572;2023-04-16T21:29:16;12.70;;;8.60;;
60610;SDS011;46439;51.164;13.572;2023-04-16T21:31:44;11.00;;;8.50;;
60610;SDS011;46439;51.164;13.572;2023-04-16T21:34:13;11.70;;;8.50;;
60610;SDS011;46439;51.164;13.572;2023-04-16T21:36:41;10.20;;;8.30;;
60610;SDS011;46439;51.164;13.572;2023-04-16T21:39:10;10.40;;;8.70;;
60610;SDS011;46439;51.164;13.572;2023-04-16T21:41:39;10.60;;;8.60;;
60610;SDS011;46439;51.164;13.572;2023-04-16T21:44:07;10.20;;;8.80;;
60610;SDS011;46439;51.164;13.572;2023-04-16T21:46:36;10.20;;;8.10;;
60610;SDS011;46439;51.164;13.572;2023-04-16T21:49:04;10.80;;;8.60;;
60610;SDS011;46439;51.164;13.572;2023-04-16T21:51:33;9.80;;;8.50;;
60610;SDS011;46439;51.164;13.572;2023-04-16T21:54:02;12.40;;;9.30;;
60610;SDS011;46439;51.164;13.572;2023-04-16T21:56:30;11.10;;;8.80;;
60610;SDS011;46439;51.164;13.572;2023-04-16T21:58:59;12.10;;;9.30;;
60610;SDS011;46439;51.164;13.572;2023-04-16T22:01:27;11.20;;;8.60;;
60610;SDS011;46439;51.164;13.572;2023-04-16T22:03:55;12.50;;;9.30;;
60610;SDS011;46439;51.164;13.572;2023-04-16T22:06:24;10.20;;;8.50;;
60610;SDS011;46439;51.164;13.572;2023-04-16T22:08:53;10.10;;;8.40;;
60610;SDS011;46439;51.164;13.572;2023-04-16T22:11:24;10.70;;;9.40;;
60610;SDS011;46439;51.164;13.572;2023-04-16T22:13:53;10.90;;;9.10;;
60610;SDS011;46439;51.164;13.572;2023-04-16T22:16:23;9.70;;;8.10;;
60610;SDS011;46439;51.164;13.572;2023-04-16T22:18:52;12.30;;;9.40;;
60610;SDS011;46439;51.164;13.572;2023-04-16T22:21:22;11.90;;;10.20;;
60610;SDS011;46439;51.164;13.572;2023-04-16T22:23:51;11.30;;;9.20;;
60610;SDS011;46439;51.164;13.572;2023-04-16T22:26:20;10.10;;;8.60;;
60610;SDS011;46439;51.164;13.572;2023-04-16T22:28:48;9.90;;;8.50;;
60610;SDS011;46439;51.164;13.572;2023-04-16T22:31:17;10.90;;;8.50;;
60610;SDS011;46439;51.164;13.572;2023-04-16T22:33:45;8.30;;;7.30;;
60610;SDS011;46439;51.164;13.572;2023-04-16T22:36:13;9.50;;;8.20;;
60610;SDS011;46439;51.164;13.572;2023-04-16T22:38:42;9.70;;;8.20;;
60610;SDS011;46439;51.164;13.572;2023-04-16T22:41:11;10.50;;;8.80;;
60610;SDS011;46439;51.164;13.572;2023-04-16T22:43:39;10.70;;;8.90;;
60610;SDS011;46439;51.164;13.572;2023-04-16T22:46:08;9.80;;;8.30;;
60610;SDS011;46439;51.164;13.572;2023-04-16T22:48:37;7.90;;;7.00;;
60610;SDS011;46439;51.164;13.572;2023-04-16T22:51:05;8.70;;;7.30;;
60610;SDS011;46439;51.164;13.572;2023-04-16T22:53:34;9.40;;;8.20;;
60610;SDS011;46439;51.164;13.572;2023-04-16T22:56:04;10.30;;;8.40;;
60610;SDS011;46439;51.164;13.572;2023-04-16T22:58:33;9.60;;;8.30;;
60610;SDS011;46439;51.164;13.572;2023-04-16T23:01:02;9.40;;;7.80;;
60610;SDS011;46439;51.164;13.572;2023-04-16T23:03:30;9.80;;;7.80;;
60610;SDS011;46439;51.164;13.572;2023-04-16T23:05:59;11.40;;;8.50;;
60610;SDS011;46439;51.164;13.572;2023-04-16T23:08:29;9.80;;;8.40;;
60610;SDS011;46439;51.164;13.572;2023-04-16T23:10:58;11.50;;;8.60;;
60610;SDS011;46439;51.164;13.572;2023-04-16T23:13:26;11.60;;;8.20;;
60610;SDS011;46439;51.164;13.572;2023-04-16T23:15:55;9.80;;;8.50;;
60610;SDS011;46439;51.164;13.572;2023-04-16T23:18:24;12.10;;;9.00;;
60610;SDS011;46439;51.164;13.572;2023-04-16T23:21:12;11.40;;;8.40;;
60610;SDS011;46439;51.164;13.572;2023-04-16T23:23:41;10.50;;;9.00;;
60610;SDS011;46439;51.164;13.572;2023-04-16T23:26:09;10.70;;;9.10;;
60610;SDS011;46439;51.164;13.572;2023-04-16T23:28:38;9.90;;;8.90;;
60610;SDS011;46439;51.164;13.572;2023-04-16T23:31:06;9.90;;;8.80;;
60610;SDS011;46439;51.164;13.572;2023-04-16T23:33:35;10.90;;;9.00;;
60610;SDS011;46439;51.164;13.572;2023-04-16T23:36:04;12.20;;;9.00;;
60610;SDS011;46439;51.164;13.572;2023-04-16T23:38:34;10.00;;;8.30;;
60610;SDS011;46439;51.164;13.572;2023-04-16T23:41:02;10.40;;;8.80;;
60610;SDS011;46439;51.164;13.572;2023-04-16T23:43:31;10.30;;;9.10;;
60610;SDS011;46439;51.164;13.572;2023-04-16T23:46:00;11.00;;;9.20;;
60610;SDS011;46439;51.164;13.572;2023-04-16T23:48:29;10.70;;;8.00;;
60610;SDS011;46439;51.164;13.572;2023-04-16T23:50:57;10.90;;;8.50;;
60610;SDS011;46439;51.164;13.572;2023-04-16T23:53:26;9.40;;;8.20;;
60610;SDS011;46439;51.164;13.572;2023-04-16T23:55:55;11.30;;;8.50;;
60610;SDS011;46439;51.164;13.572;2023-04-16T23:58:23;10.50;;;8.30;;
